Time;durP1;ratioP1;P1;durP2;ratioP2;P2;SDS_P1;SDS_P2;PMS_P1;PMS_P2;Temp;Humidity;BMP_temperature;BMP_pressure;BME280_temperature;BME280_humidity;BME280_pressure;Samples;Min_cycle;Max_cycle;Signal;HPM_P1;HPM_P2
2023/04/15 00:02:17;;;;;;;68.77;7.20;;;9.50;10.20;;;;;;5036334;28;20203;-81
2023/04/15 00:04:44;;;;;;;71.38;6.38;;;9.50;12.30;;;;;;5036557;28;20459;-82
2023/04/15 00:07:10;;;;;;;71.47;7.30;;;9.50;11.50;;;;;;5035183;28;20165;-82
2023/04/15 00:09:35;;;;;;;67.17;7.10;;;9.50;10.30;;;;;;5035073;28;20192;-82
2023/04/15 00:12:01;;;;;;;68.87;6.70;;;9.40;11.60;;;;;;5036553;28;20396;-81
2023/04/15 00:14:27;;;;;;;68.07;7.47;;;9.40;10.90;;;;;;5036297;28;20217;-81
2023/04/15 00:16:55;;;;;;;68.37;6.70;;;9.40;9.70;;;;;;5036110;28;20225;-82
2023/04/15 00:19:20;;;;;;;67.40;7.25;;;9.40;10.50;;;;;;5036561;28;20172;-82
2023/04/15 00:21:46;;;;;;;69.80;6.83;;;9.30;10.60;;;;;;5036093;28;20245;-82
2023/04/15 00:24:12;;;;;;;67.10;7.17;;;9.30;10.90;;;;;;5036439;28;20432;-81
2023/04/15 00:26:38;;;;;;;69.07;7.23;;;9.20;12.10;;;;;;5035105;28;20179;-82
2023/04/15 00:29:04;;;;;;;68.97;6.38;;;9.20;11.80;;;;;;5036059;28;20483;-81
2023/04/15 00:31:30;;;;;;;67.97;7.00;;;9.20;12.80;;;;;;5036316;28;20277;-82
2023/04/15 00:33:57;;;;;;;70.72;7.25;;;9.10;13.90;;;;;;5034564;28;20193;-81
2023/04/15 00:36:23;;;;;;;66.70;6.75;;;9.10;14.20;;;;;;5035844;28;20216;-81
2023/04/15 00:38:49;;;;;;;69.40;7.37;;;9.10;13.90;;;;;;5035602;28;20651;-81
2023/04/15 00:41:14;;;;;;;67.60;6.10;;;9.10;13.30;;;;;;5035520;28;20494;-82
2023/04/15 00:43:41;;;;;;;68.00;6.70;;;9.10;13.90;;;;;;5035509;28;20185;-82
2023/04/15 00:46:08;;;;;;;67.20;6.45;;;9.00;15.20;;;;;;5035456;28;20200;-82
2023/04/15 00:48:34;;;;;;;68.30;6.07;;;8.90;17.30;;;;;;5035794;28;20165;-81
2023/04/15 00:51:00;;;;;;;70.03;6.93;;;9.00;16.60;;;;;;5035652;28;20533;-82
2023/04/15 00:53:26;;;;;;;68.28;6.20;;;8.90;15.50;;;;;;5035670;28;20180;-82
2023/04/15 00:55:53;;;;;;;68.07;5.50;;;8.90;15.00;;;;;;5035263;28;20210;-81
2023/04/15 00:58:18;;;;;;;69.07;7.07;;;8.90;15.80;;;;;;5035267;28;20177;-82
2023/04/15 01:00:45;;;;;;;67.43;6.00;;;8.80;15.60;;;;;;5036693;28;20657;-82
2023/04/15 01:03:11;;;;;;;72.50;6.15;;;8.80;17.10;;;;;;5037726;28;20192;-82
2023/04/15 01:05:38;;;;;;;66.90;6.20;;;8.80;18.00;;;;;;5036434;28;20197;-82
2023/04/15 01:08:04;;;;;;;69.75;6.88;;;8.80;17.90;;;;;;5038377;28;20774;-83
2023/04/15 01:10:30;;;;;;;67.95;6.10;;;8.70;17.80;;;;;;5036893;28;20168;-83
2023/04/15 01:12:56;;;;;;;68.57;5.70;;;8.70;15.90;;;;;;5037922;28;20256;-82
2023/04/15 01:15:22;;;;;;;69.78;6.38;;;8.70;17.90;;;;;;5037660;28;20176;-82
2023/04/15 01:17:49;;;;;;;65.78;5.40;;;8.70;18.10;;;;;;5037918;28;20162;-82
2023/04/15 01:20:15;;;;;;;67.00;6.50;;;8.60;18.30;;;;;;5036469;28;20187;-82
2023/04/15 01:22:41;;;;;;;66.03;5.50;;;8.60;20.00;;;;;;5038239;28;20153;-82
2023/04/15 01:25:16;;;;;;;66.93;6.07;;;8.60;20.10;;;;;;5038528;28;20168;-83
2023/04/15 01:27:42;;;;;;;67.47;6.35;;;8.60;20.20;;;;;;5037637;28;20228;-83
2023/04/15 01:30:09;;;;;;;67.10;5.85;;;8.60;17.80;;;;;;5038200;28;20211;-82
2023/04/15 01:32:35;;;;;;;68.63;5.93;;;8.50;17.80;;;;;;5037172;28;20502;-83
2023/04/15 01:35:01;;;;;;;68.88;6.32;;;8.50;20.30;;;;;;5037201;28;20215;-82
2023/04/15 01:37:28;;;;;;;65.85;5.85;;;8.50;18.80;;;;;;5036250;28;20272;-82
2023/04/15 01:39:54;;;;;;;68.60;5.65;;;8.50;16.60;;;;;;5038255;28;20172;-83
2023/04/15 01:42:21;;;;;;;69.23;5.40;;;8.40;18.30;;;;;;5037859;28;20196;-82
2023/04/15 01:44:47;;;;;;;67.13;5.75;;;8.40;19.10;;;;;;5036904;28;20236;-82
2023/04/15 01:47:13;;;;;;;68.00;5.90;;;8.40;19.40;;;;;;5037654;28;20246;-82
2023/04/15 01:49:38;;;;;;;67.22;6.22;;;8.40;19.70;;;;;;5036451;28;20283;-82
2023/04/15 01:52:04;;;;;;;66.90;6.00;;;8.30;20.20;;;;;;5038170;28;20661;-82
2023/04/15 01:54:30;;;;;;;69.37;6.57;;;8.30;19.80;;;;;;5037469;28;20192;-83
2023/04/15 01:56:56;;;;;;;68.83;6.30;;;8.30;18.40;;;;;;5037688;28;20189;-82
2023/04/15 01:59:21;;;;;;;66.50;5.00;;;8.30;19.30;;;;;;5036313;28;20225;-82
2023/04/15 02:01:47;;;;;;;68.27;5.30;;;8.30;16.90;;;;;;5106311;23;20704;-87
2023/04/15 02:04:16;;;;;;;67.37;6.37;;;8.30;17.20;;;;;;5036633;28;20951;-87
2023/04/15 02:06:43;;;;;;;66.38;5.82;;;8.10;20.00;;;;;;5035825;28;20976;-87
2023/04/15 02:09:09;;;;;;;69.88;5.70;;;8.10;21.10;;;;;;5036985;28;20165;-86
2023/04/15 02:11:38;;;;;;;66.47;5.30;;;8.10;20.90;;;;;;5036280;28;20173;-87
2023/04/15 02:14:05;;;;;;;67.05;6.63;;;8.10;19.80;;;;;;5035917;28;20556;-86
2023/04/15 02:16:31;;;;;;;70.10;6.40;;;8.00;20.60;;;;;;5037344;28;20196;-87
2023/04/15 02:18:58;;;;;;;66.93;5.00;;;8.00;22.00;;;;;;5037848;28;20162;-87
2023/04/15 02:21:25;;;;;;;68.28;5.95;;;8.00;22.90;;;;;;5037740;28;20168;-86
2023/04/15 02:23:52;;;;;;;73.00;6.95;;;8.00;22.20;;;;;;5037788;28;20267;-87
2023/04/15 02:26:18;;;;;;;72.88;6.22;;;8.00;20.90;;;;;;5036186;28;20619;-87
2023/04/15 02:28:44;;;;;;;69.18;6.32;;;7.90;22.30;;;;;;5036375;28;20227;-87
2023/04/15 02:31:10;;;;;;;66.93;5.57;;;7.90;21.10;;;;;;5037001;28;20571;-87
2023/04/15 02:33:36;;;;;;;69.97;6.63;;;7.80;22.50;;;;;;5035894;28;20479;-88
2023/04/15 02:36:02;;;;;;;67.18;5.55;;;7.80;22.00;;;;;;5035785;28;20204;-87
2023/04/15 02:38:29;;;;;;;70.28;6.22;;;7.80;22.10;;;;;;5037265;28;20189;-87
2023/04/15 02:40:56;;;;;;;68.93;6.72;;;7.70;22.40;;;;;;5035668;28;20172;-88
2023/04/15 02:43:22;;;;;;;68.03;6.65;;;7.70;23.50;;;;;;5036884;28;20177;-87
2023/04/15 02:45:47;;;;;;;67.50;6.05;;;7.70;23.30;;;;;;5040102;28;20575;-87
2023/04/15 02:48:13;;;;;;;73.13;7.43;;;7.70;23.80;;;;;;5040863;28;20165;-87
2023/04/15 02:50:39;;;;;;;68.27;7.00;;;7.70;23.60;;;;;;5039959;28;20174;-86
2023/04/15 02:53:05;;;;;;;67.35;6.45;;;7.70;22.20;;;;;;5039515;28;20193;-88
2023/04/15 02:55:32;;;;;;;67.75;6.57;;;7.70;22.10;;;;;;5038897;28;20193;-86
2023/04/15 02:57:59;;;;;;;68.35;6.70;;;7.70;21.10;;;;;;5040301;28;20165;-86
2023/04/15 03:00:25;;;;;;;70.45;7.55;;;7.60;21.90;;;;;;5040351;28;20176;-88
2023/04/15 03:02:55;;;;;;;72.50;6.70;;;7.60;22.70;;;;;;5039747;28;20234;-88
2023/04/15 03:05:24;;;;;;;67.70;5.97;;;7.60;24.10;;;;;;5038284;28;20173;-86
2023/04/15 03:07:50;;;;;;;68.72;7.15;;;7.50;23.80;;;;;;5037700;28;20165;-86
2023/04/15 03:10:16;;;;;;;70.13;6.75;;;7.50;24.20;;;;;;5038164;28;20210;-86
2023/04/15 03:12:42;;;;;;;65.83;6.10;;;7.50;24.60;;;;;;5038023;28;20173;-86
2023/04/15 03:15:08;;;;;;;69.57;6.07;;;7.40;24.20;;;;;;5037837;28;20223;-86
2023/04/15 03:17:34;;;;;;;67.82;6.47;;;7.40;24.80;;;;;;5039498;28;20173;-86
2023/04/15 03:20:04;;;;;;;71.37;7.70;;;7.40;24.20;;;;;;5038294;28;20169;-87
2023/04/15 03:22:33;;;;;;;68.70;6.90;;;7.40;25.10;;;;;;5039855;28;20769;-86
2023/04/15 03:24:59;;;;;;;70.70;6.22;;;7.30;25.60;;;;;;5038220;28;20610;-87
2023/04/15 03:27:25;;;;;;;69.30;7.33;;;7.30;26.10;;;;;;5039330;28;20165;-86
2023/04/15 03:29:50;;;;;;;67.57;6.67;;;7.30;26.40;;;;;;5039658;28;20191;-88
2023/04/15 03:32:17;;;;;;;70.43;6.87;;;7.20;27.40;;;;;;5038689;28;20173;-86
2023/04/15 03:34:43;;;;;;;67.03;6.40;;;7.20;25.30;;;;;;5038175;28;20515;-86
2023/04/15 03:37:09;;;;;;;68.63;7.45;;;7.20;26.70;;;;;;5021510;28;20208;-87
2023/04/15 03:39:35;;;;;;;67.93;6.40;;;7.20;24.30;;;;;;5038760;28;20165;-87
2023/04/15 03:42:00;;;;;;;68.57;6.57;;;7.30;23.30;;;;;;5039724;28;20211;-87
2023/04/15 03:44:26;;;;;;;70.50;6.93;;;7.20;26.10;;;;;;5037806;28;20427;-87
2023/04/15 03:46:53;;;;;;;68.45;6.47;;;7.20;25.00;;;;;;5037869;28;20184;-87
2023/04/15 03:49:18;;;;;;;67.70;6.55;;;7.10;27.60;;;;;;5039243;28;20604;-88
2023/04/15 03:51:44;;;;;;;70.33;6.67;;;7.10;27.80;;;;;;5040166;28;20203;-87
2023/04/15 03:54:11;;;;;;;66.80;6.00;;;7.10;28.80;;;;;;5037922;28;20454;-87
2023/04/15 03:56:37;;;;;;;68.88;6.15;;;7.10;28.30;;;;;;5038951;28;20185;-87
2023/04/15 03:59:03;;;;;;;67.70;7.13;;;7.20;27.80;;;;;;5039523;28;20161;-88
2023/04/15 04:01:28;;;;;;;68.10;6.30;;;7.20;27.50;;;;;;5036922;28;20192;-87
2023/04/15 04:03:54;;;;;;;66.70;5.80;;;7.10;29.00;;;;;;5039833;28;20190;-86
2023/04/15 04:06:23;;;;;;;66.70;6.10;;;7.00;30.10;;;;;;5037790;28;20496;-87
2023/04/15 04:08:48;;;;;;;70.40;7.30;;;7.00;30.70;;;;;;5038676;28;20396;-87
2023/04/15 04:11:15;;;;;;;66.57;6.00;;;7.00;30.80;;;;;;5038252;28;20211;-87
2023/04/15 04:13:40;;;;;;;68.43;6.47;;;7.00;29.70;;;;;;5039823;28;20182;-86
2023/04/15 04:16:06;;;;;;;70.03;6.60;;;7.00;30.10;;;;;;5039264;28;20696;-87
2023/04/15 04:18:32;;;;;;;66.53;5.50;;;6.90;31.90;;;;;;5038361;28;20161;-87
2023/04/15 04:20:58;;;;;;;67.80;6.67;;;6.90;32.70;;;;;;5037769;28;20503;-86
2023/04/15 04:23:24;;;;;;;67.90;7.03;;;6.90;31.30;;;;;;5039050;28;20624;-87
2023/04/15 04:25:50;;;;;;;70.20;6.82;;;6.90;29.90;;;;;;5039790;28;20166;-88
2023/04/15 04:28:15;;;;;;;68.70;6.50;;;7.00;29.90;;;;;;5038604;28;20267;-87
2023/04/15 04:30:41;;;;;;;67.73;7.20;;;6.90;30.30;;;;;;5039227;28;20408;-87
2023/04/15 04:33:07;;;;;;;70.07;6.47;;;6.80;32.30;;;;;;5036967;28;20189;-88
2023/04/15 04:35:33;;;;;;;68.23;7.27;;;6.80;32.80;;;;;;5037699;28;20197;-87
2023/04/15 04:38:00;;;;;;;69.20;7.80;;;6.80;32.60;;;;;;5037492;28;20165;-87
2023/04/15 04:40:26;;;;;;;69.15;7.03;;;6.70;35.30;;;;;;5038773;28;20169;-87
2023/04/15 04:42:52;;;;;;;70.53;7.35;;;6.70;35.00;;;;;;5038942;28;20154;-87
2023/04/15 04:45:18;;;;;;;69.45;7.22;;;6.70;35.40;;;;;;5038795;28;20165;-87
2023/04/15 04:47:44;;;;;;;67.05;6.88;;;6.70;36.00;;;;;;5037992;28;20165;-86
2023/04/15 04:50:10;;;;;;;70.33;7.63;;;6.70;35.60;;;;;;5038313;28;20172;-86
2023/04/15 04:52:36;;;;;;;67.25;6.50;;;6.60;38.00;;;;;;5034182;28;20169;-86
2023/04/15 04:55:02;;;;;;;68.10;7.77;;;6.60;40.50;;;;;;5034187;28;20188;-86
2023/04/15 04:57:28;;;;;;;69.57;6.90;;;6.50;46.30;;;;;;5034523;28;20440;-86
2023/04/15 04:59:53;;;;;;;71.07;7.97;;;6.60;43.50;;;;;;5036558;28;20469;-86
2023/04/15 05:02:19;;;;;;;67.53;6.70;;;6.60;46.40;;;;;;5035495;28;20184;-87
2023/04/15 05:04:45;;;;;;;69.17;8.20;;;6.70;46.20;;;;;;5035572;28;20185;-87
2023/04/15 05:07:11;;;;;;;67.00;6.87;;;6.70;43.50;;;;;;5036645;28;20244;-86
2023/04/15 05:09:36;;;;;;;71.73;7.30;;;6.80;40.80;;;;;;5037131;28;20223;-87
2023/04/15 05:12:06;;;;;;;69.57;6.07;;;6.70;40.50;;;;;;5036174;28;20411;-87
2023/04/15 05:14:35;;;;;;;73.85;7.70;;;6.60;45.40;;;;;;5038250;28;20200;-87
2023/04/15 05:17:00;;;;;;;66.30;6.85;;;6.60;47.50;;;;;;5037287;28;20193;-87
2023/04/15 05:19:26;;;;;;;70.73;8.10;;;6.60;49.00;;;;;;5037586;28;20172;-87
2023/04/15 05:21:52;;;;;;;66.93;7.60;;;6.70;49.50;;;;;;5037837;28;20161;-86
2023/04/15 05:24:17;;;;;;;68.33;7.20;;;6.60;49.40;;;;;;5035956;28;20184;-86
2023/04/15 05:26:43;;;;;;;68.73;6.77;;;6.70;47.90;;;;;;5037122;28;20165;-86
2023/04/15 05:29:09;;;;;;;67.00;7.10;;;6.70;48.30;;;;;;5037015;28;20172;-86
2023/04/15 05:31:35;;;;;;;67.50;7.70;;;6.70;49.40;;;;;;5035916;28;20165;-86
2023/04/15 05:34:01;;;;;;;70.05;7.85;;;6.70;49.50;;;;;;5035992;28;20193;-87
2023/04/15 05:36:27;;;;;;;72.37;8.10;;;6.80;45.70;;;;;;5036662;28;20200;-87
2023/04/15 05:38:53;;;;;;;68.07;6.97;;;6.80;46.00;;;;;;5036801;28;20154;-87
2023/04/15 05:41:18;;;;;;;71.30;8.17;;;6.80;47.00;;;;;;5036319;28;20178;-87
2023/04/15 05:43:44;;;;;;;67.67;7.53;;;6.80;49.60;;;;;;5037809;28;20178;-86
2023/04/15 05:46:10;;;;;;;70.53;8.13;;;6.80;51.00;;;;;;5038598;28;20192;-87
2023/04/15 05:48:35;;;;;;;69.67;8.40;;;6.90;51.20;;;;;;5037353;28;20196;-86
2023/04/15 05:51:01;;;;;;;68.60;9.10;;;6.90;53.80;;;;;;5035975;28;20173;-86
2023/04/15 05:53:27;;;;;;;81.63;10.13;;;7.00;53.60;;;;;;5036218;28;20193;-86
2023/04/15 05:55:52;;;;;;;70.33;8.20;;;7.00;54.60;;;;;;5037144;28;20185;-86
2023/04/15 05:58:18;;;;;;;73.40;9.87;;;7.00;60.70;;;;;;5036594;28;20176;-87
2023/04/15 06:00:45;;;;;;;78.60;9.43;;;7.00;60.30;;;;;;5035414;28;20275;-87
2023/04/15 06:03:10;;;;;;;74.90;9.70;;;7.00;60.30;;;;;;5035364;28;20204;-87
2023/04/15 06:05:36;;;;;;;67.80;8.50;;;7.00;62.80;;;;;;5036028;28;20181;-87
2023/04/15 06:08:02;;;;;;;74.47;7.93;;;7.10;62.70;;;;;;5037000;28;20176;-87
2023/04/15 06:10:27;;;;;;;68.17;8.17;;;7.10;60.60;;;;;;5037086;28;20408;-87
2023/04/15 06:12:53;;;;;;;74.10;7.50;;;7.20;60.40;;;;;;5036498;28;20684;-86
2023/04/15 06:15:19;;;;;;;67.57;7.10;;;7.30;61.50;;;;;;5037997;28;20169;-87
2023/04/15 06:17:45;;;;;;;69.57;7.20;;;7.40;58.60;;;;;;5036532;28;20625;-86
2023/04/15 06:20:11;;;;;;;68.53;7.53;;;7.40;59.40;;;;;;5038899;28;20192;-87
2023/04/15 06:22:39;;;;;;;69.05;6.90;;;7.50;58.10;;;;;;5041625;28;20536;-86
2023/04/15 06:25:08;;;;;;;67.82;7.43;;;7.60;57.80;;;;;;5040380;28;20205;-86
2023/04/15 06:27:36;;;;;;;68.72;7.05;;;7.60;60.90;;;;;;5040339;28;20172;-87
2023/04/15 06:30:02;;;;;;;69.68;8.45;;;7.70;60.20;;;;;;5039866;28;20169;-87
2023/04/15 06:32:28;;;;;;;67.55;7.55;;;7.70;60.20;;;;;;5039766;28;20173;-86
2023/04/15 06:34:54;;;;;;;70.73;8.03;;;7.70;73.20;;;;;;5040498;28;20557;-86
2023/04/15 06:37:19;;;;;;;67.67;7.63;;;7.80;66.70;;;;;;5039910;28;20447;-86
2023/04/15 06:39:45;;;;;;;72.23;7.30;;;7.80;64.60;;;;;;5039675;28;20185;-86
2023/04/15 06:42:11;;;;;;;69.40;7.10;;;7.90;64.60;;;;;;5040456;28;20160;-86
2023/04/15 06:44:37;;;;;;;70.63;7.93;;;8.10;63.80;;;;;;5038886;28;20292;-87
2023/04/15 06:47:02;;;;;;;71.95;8.77;;;8.10;62.20;;;;;;5040796;28;20161;-86
2023/04/15 06:49:28;;;;;;;70.10;7.80;;;8.20;61.60;;;;;;5039479;28;20192;-87
2023/04/15 06:51:54;;;;;;;70.63;7.90;;;8.30;60.70;;;;;;5039531;28;20260;-86
2023/04/15 06:54:20;;;;;;;70.13;7.20;;;8.40;59.70;;;;;;5038422;28;20436;-86
2023/04/15 06:56:46;;;;;;;73.13;6.50;;;8.40;58.50;;;;;;5038331;28;20201;-86
2023/04/15 06:59:13;;;;;;;71.50;7.25;;;8.60;55.70;;;;;;5038910;28;20430;-87
2023/04/15 07:01:40;;;;;;;74.72;7.80;;;8.60;57.90;;;;;;5038592;28;20180;-86
2023/04/15 07:04:06;;;;;;;70.03;7.90;;;8.70;57.10;;;;;;5038704;28;20192;-87
2023/04/15 07:06:32;;;;;;;70.03;7.90;;;8.90;56.10;;;;;;5040178;28;20165;-86
2023/04/15 07:08:58;;;;;;;66.70;6.75;;;8.80;59.30;;;;;;5039840;28;20509;-87
2023/04/15 07:11:25;;;;;;;72.57;7.50;;;8.80;65.50;;;;;;5039770;28;20168;-86
2023/04/15 07:13:51;;;;;;;70.90;8.07;;;8.90;59.30;;;;;;5039568;28;20478;-86
2023/04/15 07:16:17;;;;;;;73.10;8.30;;;8.90;59.30;;;;;;5038851;28;20201;-87
2023/04/15 07:18:42;;;;;;;66.70;7.53;;;8.90;65.00;;;;;;5040440;28;20416;-86
2023/04/15 07:21:08;;;;;;;70.10;8.73;;;8.90;64.80;;;;;;5040540;28;20625;-87
2023/04/15 07:23:34;;;;;;;78.17;10.07;;;9.00;73.40;;;;;;5038824;28;20189;-87
2023/04/15 07:26:00;;;;;;;73.47;8.77;;;9.10;78.80;;;;;;5039978;28;20197;-86
2023/04/15 07:28:26;;;;;;;72.18;9.05;;;9.20;75.80;;;;;;5040276;28;20189;-86
2023/04/15 07:30:52;;;;;;;72.87;8.90;;;9.30;74.90;;;;;;5040820;28;20652;-87
2023/04/15 07:33:17;;;;;;;71.97;9.30;;;9.50;80.00;;;;;;5040349;28;20432;-86
2023/04/15 07:35:44;;;;;;;72.37;8.50;;;9.60;83.20;;;;;;5039458;28;20740;-87
2023/04/15 07:38:12;;;;;;;69.63;8.93;;;9.70;80.80;;;;;;5039695;28;20175;-86
2023/04/15 07:40:38;;;;;;;72.25;8.98;;;9.80;83.30;;;;;;5039192;28;20161;-87
2023/04/15 07:43:04;;;;;;;73.47;8.77;;;9.90;76.30;;;;;;5040294;28;20184;-86
2023/04/15 07:45:31;;;;;;;73.57;9.55;;;10.00;58.20;;;;;;5039967;28;20185;-85
2023/04/15 07:47:56;;;;;;;71.25;9.77;;;10.20;49.00;;;;;;5040420;28;20173;-87
2023/04/15 07:50:22;;;;;;;74.47;9.97;;;10.30;35.60;;;;;;5039088;28;20173;-87
2023/04/15 07:52:49;;;;;;;77.17;10.47;;;10.40;36.20;;;;;;5040007;28;20168;-87
2023/04/15 07:55:18;;;;;;;71.20;9.10;;;10.50;30.50;;;;;;5038775;28;20162;-86
2023/04/15 07:57:44;;;;;;;74.30;10.13;;;10.60;26.30;;;;;;5038879;28;20179;-87
2023/04/15 08:02:37;;;;;;;73.72;10.00;;;10.70;27.50;;;;;;5007035;28;20202;-83
2023/04/15 08:05:03;;;;;;;73.40;9.80;;;10.90;27.90;;;;;;5010833;28;20265;-83
2023/04/15 08:07:30;;;;;;;72.43;9.95;;;10.90;26.60;;;;;;5010061;28;20198;-83
2023/04/15 08:09:55;;;;;;;73.50;9.63;;;11.00;23.90;;;;;;5008681;28;20162;-83
2023/04/15 08:12:22;;;;;;;70.73;8.77;;;11.00;27.30;;;;;;5008926;28;20242;-83
2023/04/15 08:14:50;;;;;;;74.28;10.07;;;11.00;27.40;;;;;;5008547;28;20232;-82
2023/04/15 08:17:19;;;;;;;72.03;10.32;;;11.10;33.50;;;;;;5009606;28;20671;-83
2023/04/15 08:19:47;;;;;;;74.78;9.98;;;11.20;33.70;;;;;;5009715;28;20238;-83
2023/04/15 08:22:13;;;;;;;71.13;8.20;;;11.30;33.90;;;;;;5010212;28;20167;-83
2023/04/15 08:24:38;;;;;;;76.33;8.80;;;11.40;27.40;;;;;;5009730;28;20238;-83
2023/04/15 08:27:04;;;;;;;74.23;9.60;;;11.30;20.20;;;;;;5009941;28;20443;-83
2023/04/15 08:29:31;;;;;;;72.50;8.60;;;11.40;22.10;;;;;;5008093;28;20238;-83
2023/04/15 08:32:01;;;;;;;69.50;8.77;;;11.40;17.10;;;;;;5008357;28;20409;-83
2023/04/15 08:34:28;;;;;;;72.93;8.30;;;11.50;17.60;;;;;;5009124;28;20187;-83
2023/04/15 08:36:53;;;;;;;76.63;8.38;;;11.50;19.10;;;;;;5010385;28;20190;-83
2023/04/15 08:39:19;;;;;;;70.53;8.27;;;11.60;19.80;;;;;;5010072;28;20167;-83
2023/04/15 08:41:49;;;;;;;73.47;9.33;;;11.70;22.40;;;;;;5008661;28;20242;-83
2023/04/15 08:44:15;;;;;;;71.72;9.13;;;11.90;20.40;;;;;;5007946;28;20422;-83
2023/04/15 08:46:41;;;;;;;71.05;9.18;;;12.00;16.20;;;;;;5009000;28;20170;-83
2023/04/15 08:49:12;;;;;;;72.43;8.13;;;12.00;13.30;;;;;;5008507;28;20641;-83
2023/04/15 08:51:39;;;;;;;67.70;6.80;;;11.90;2.70;;;;;;5009058;28;20178;-83
2023/04/15 08:54:05;;;;;;;68.25;6.57;;;12.00;1.00;;;;;;5010085;28;20610;-83
2023/04/15 08:56:31;;;;;;;66.57;6.72;;;12.00;1.00;;;;;;5010497;28;20213;-83
2023/04/15 08:58:58;;;;;;;66.82;6.13;;;12.00;1.00;;;;;;5010314;28;20627;-83
2023/04/15 09:01:24;;;;;;;65.82;6.47;;;12.00;1.00;;;;;;5007900;28;20189;-83
2023/04/15 09:03:51;;;;;;;66.80;6.00;;;12.00;1.00;;;;;;5009904;28;20261;-83
2023/04/15 09:06:20;;;;;;;64.82;6.53;;;12.00;1.00;;;;;;5008570;28;20170;-83
2023/04/15 09:08:46;;;;;;;65.45;5.65;;;12.10;1.00;;;;;;5009685;28;20171;-83
2023/04/15 09:11:12;;;;;;;66.90;6.23;;;12.10;1.00;;;;;;5009002;28;20242;-83
2023/04/15 09:13:38;;;;;;;65.27;4.90;;;12.20;1.00;;;;;;5008030;28;20484;-83
2023/04/15 09:16:05;;;;;;;66.65;5.85;;;12.20;1.00;;;;;;5008133;28;20450;-83
2023/04/15 09:18:32;;;;;;;66.63;5.50;;;12.30;1.00;;;;;;5009041;28;20167;-83
2023/04/15 09:21:15;;;;;;;66.20;4.15;;;12.30;1.00;;;;;;5008454;28;20173;-83
2023/04/15 09:23:57;;;;;;;65.13;4.78;;;12.40;1.00;;;;;;5008835;28;20191;-82
2023/04/15 09:26:32;;;;;;;67.85;4.60;;;12.50;1.00;;;;;;5007832;28;20166;-83
2023/04/15 09:29:39;;;;;;;66.03;4.60;;;12.50;1.00;;;;;;5007286;28;20170;-83
2023/04/15 09:32:14;;;;;;;66.03;4.18;;;12.60;1.00;;;;;;5006358;28;20179;-82
2023/04/15 09:34:39;;;;;;;75.05;4.43;;;12.60;1.00;;;;;;5007658;28;20198;-83
2023/04/15 09:37:05;;;;;;;64.50;4.00;;;12.60;1.00;;;;;;5007859;28;20200;-83
2023/04/15 09:39:47;;;;;;;67.07;4.10;;;12.60;1.00;;;;;;5007729;28;20170;-82
2023/04/15 09:42:13;;;;;;;65.50;4.55;;;12.70;1.00;;;;;;5007701;28;20179;-83
2023/04/15 09:44:38;;;;;;;65.37;4.53;;;12.70;1.00;;;;;;5006953;28;20193;-82
2023/04/15 09:47:05;;;;;;;68.60;5.10;;;12.80;1.00;;;;;;5007248;28;20162;-83
2023/04/15 09:49:31;;;;;;;64.97;4.85;;;12.70;1.00;;;;;;5005687;28;20170;-83
2023/04/15 09:54:36;;;;;;;65.25;4.50;;;12.80;1.00;;;;;;5281841;23;20692;-85
2023/04/15 09:57:08;;;;;;;66.25;4.82;;;12.80;1.00;;;;;;5026092;28;20224;-82
2023/04/15 10:02:07;;;;;;;67.25;4.53;;;12.80;1.00;;;;;;5080457;23;20214;-82
2023/04/15 10:04:39;;;;;;;66.35;5.20;;;12.70;1.00;;;;;;5024746;28;20665;-82
2023/04/15 10:07:07;;;;;;;66.00;4.70;;;12.80;1.00;;;;;;5025645;28;20230;-82
2023/04/15 10:09:35;;;;;;;66.15;5.65;;;12.80;1.00;;;;;;5024098;28;20174;-82
2023/04/15 10:12:03;;;;;;;65.40;4.63;;;12.90;1.00;;;;;;5026220;28;20177;-82
2023/04/15 10:14:32;;;;;;;66.30;4.88;;;12.90;1.00;;;;;;5030837;28;20217;-82
2023/04/15 10:17:03;;;;;;;65.47;4.03;;;13.00;1.00;;;;;;5026104;28;20189;-82
2023/04/15 10:19:32;;;;;;;66.30;5.57;;;13.00;1.00;;;;;;5026910;28;20188;-82
2023/04/15 10:22:02;;;;;;;67.65;6.10;;;13.10;1.00;;;;;;5026999;28;20348;-82
2023/04/15 10:24:27;;;;;;;66.05;5.20;;;13.20;1.00;;;;;;5026663;28;20192;-83
2023/04/15 10:26:54;;;;;;;66.87;4.97;;;13.20;1.00;;;;;;5027107;28;20197;-82
2023/04/15 10:29:20;;;;;;;67.50;6.30;;;13.00;1.00;;;;;;5028037;28;20170;-83
2023/04/15 10:31:46;;;;;;;66.88;6.10;;;13.00;1.00;;;;;;5027545;28;20764;-83
2023/04/15 10:34:14;;;;;;;68.57;6.85;;;13.00;1.00;;;;;;5027059;28;20190;-83
2023/04/15 10:36:40;;;;;;;67.30;6.72;;;13.00;1.00;;;;;;5026828;28;20193;-82
2023/04/15 10:39:32;;;;;;;69.57;6.90;;;12.90;1.00;;;;;;5026048;28;20162;-82
2023/04/15 10:42:09;;;;;;;69.88;6.78;;;13.00;1.00;;;;;;5026159;28;20193;-82
2023/04/15 10:44:40;;;;;;;66.90;6.30;;;13.20;1.00;;;;;;5025046;28;20185;-82
2023/04/15 10:47:11;;;;;;;67.50;6.97;;;13.50;1.00;;;;;;5025181;28;20408;-82
2023/04/15 10:49:44;;;;;;;67.38;6.55;;;13.60;1.00;;;;;;5024999;28;20161;-82
2023/04/15 10:52:10;;;;;;;67.72;6.07;;;13.80;1.00;;;;;;5025727;28;20165;-82
2023/04/15 10:54:38;;;;;;;68.30;6.77;;;14.10;1.00;;;;;;5024700;28;20221;-82
2023/04/15 10:57:04;;;;;;;66.67;6.70;;;14.20;1.00;;;;;;5025774;28;20479;-83
2023/04/15 10:59:59;;;;;;;67.47;6.07;;;14.20;1.00;;;;;;5022954;28;20425;-83
2023/04/15 11:02:57;;;;;;;67.90;6.33;;;14.40;1.00;;;;;;5024018;28;20419;-82
2023/04/15 11:05:48;;;;;;;68.30;6.70;;;14.70;1.00;;;;;;5011498;28;20416;-83
2023/04/15 11:08:15;;;;;;;67.70;6.10;;;14.90;1.00;;;;;;5022827;28;20754;-82
2023/04/15 11:10:43;;;;;;;67.00;5.73;;;15.00;1.00;;;;;;5023576;28;20425;-83
2023/04/15 11:13:16;;;;;;;65.80;5.63;;;14.90;1.00;;;;;;5024314;28;20432;-83
2023/04/15 11:15:46;;;;;;;68.10;6.27;;;14.80;1.00;;;;;;5023163;28;20401;-82
2023/04/15 11:18:23;;;;;;;68.10;6.10;;;14.60;1.00;;;;;;5023224;28;20437;-82
2023/04/15 11:20:51;;;;;;;66.83;5.80;;;14.50;1.00;;;;;;5023760;28;20380;-82
2023/04/15 11:23:26;;;;;;;67.17;6.23;;;14.40;1.00;;;;;;5024308;28;20421;-83
2023/04/15 11:25:55;;;;;;;70.50;5.37;;;14.30;1.00;;;;;;5023196;28;20383;-82
2023/04/15 11:28:28;;;;;;;66.00;5.50;;;14.30;1.00;;;;;;5023560;28;20491;-83
2023/04/15 11:30:54;;;;;;;67.40;6.67;;;14.40;1.00;;;;;;5023142;28;20380;-82
2023/04/15 11:33:21;;;;;;;67.40;5.90;;;14.20;1.00;;;;;;5022418;28;20475;-82
2023/04/15 11:35:47;;;;;;;67.73;5.93;;;14.30;1.00;;;;;;5021790;28;20446;-82
2023/04/15 11:38:14;;;;;;;67.30;6.40;;;14.40;1.00;;;;;;5023167;28;20429;-82
2023/04/15 11:40:41;;;;;;;67.30;6.20;;;14.40;1.00;;;;;;5021592;28;20435;-82
2023/04/15 11:43:08;;;;;;;66.30;5.83;;;14.40;1.00;;;;;;5022931;28;20439;-82
2023/04/15 11:45:35;;;;;;;67.03;6.77;;;14.60;1.00;;;;;;5023844;28;20427;-82
2023/04/15 11:48:10;;;;;;;67.50;6.70;;;14.30;1.00;;;;;;5022681;28;20407;-82
2023/04/15 11:50:39;;;;;;;66.63;6.53;;;14.30;1.00;;;;;;5023548;28;20543;-83
2023/04/15 11:53:06;;;;;;;66.50;5.20;;;14.20;1.00;;;;;;5024446;28;20479;-82
2023/04/15 11:55:46;;;;;;;65.75;4.85;;;14.10;1.00;;;;;;5024012;28;20471;-82
2023/04/15 11:58:17;;;;;;;66.00;5.50;;;14.00;1.00;;;;;;5020892;28;20389;-82
2023/04/15 12:01:01;;;;;;;66.10;5.53;;;14.00;1.00;;;;;;5024133;28;20408;-83
2023/04/15 12:03:36;;;;;;;66.20;6.10;;;13.90;1.00;;;;;;5023650;28;20432;-84
2023/04/15 12:06:22;;;;;;;67.00;5.97;;;13.90;1.00;;;;;;5022773;28;20389;-84
2023/04/15 12:09:06;;;;;;;68.60;8.53;;;14.00;1.00;;;;;;5022753;28;20423;-84
2023/04/15 12:11:46;;;;;;;68.80;8.90;;;13.90;1.00;;;;;;5024517;28;20397;-85
2023/04/15 12:14:25;;;;;;;67.80;8.17;;;13.90;1.00;;;;;;5024810;28;20499;-85
2023/04/15 12:16:53;;;;;;;67.70;7.57;;;14.00;1.00;;;;;;5021308;28;20444;-85
2023/04/15 12:19:24;;;;;;;68.40;9.07;;;13.70;1.00;;;;;;5023715;28;20405;-85
2023/04/15 12:21:51;;;;;;;67.80;8.23;;;13.50;1.00;;;;;;5022660;28;20397;-84
2023/04/15 12:24:21;;;;;;;67.38;8.57;;;13.50;1.00;;;;;;5022323;28;20417;-85
2023/04/15 12:26:56;;;;;;;65.60;6.40;;;13.50;1.00;;;;;;5100526;23;20283;-85
2023/04/15 12:31:58;;;;;;;66.37;6.70;;;13.10;1.00;;;;;;5193681;23;20213;-85
2023/04/15 12:36:56;;;;;;;66.13;7.18;;;13.00;1.00;;;;;;5021743;28;20476;-85
2023/04/15 12:39:27;;;;;;;67.15;8.02;;;13.20;1.00;;;;;;5023183;28;20584;-85
2023/04/15 12:41:53;;;;;;;67.03;7.77;;;13.20;1.00;;;;;;5023971;28;20154;-85
2023/04/15 12:44:19;;;;;;;66.70;6.83;;;13.30;1.00;;;;;;5025209;28;20416;-85
2023/04/15 12:46:45;;;;;;;67.30;8.00;;;13.30;1.00;;;;;;5024561;28;20441;-85
2023/04/15 12:49:15;;;;;;;67.05;7.15;;;13.10;1.00;;;;;;5024639;28;20428;-85
2023/04/15 12:51:41;;;;;;;67.55;7.90;;;12.90;1.00;;;;;;5023685;28;20257;-85
2023/04/15 12:54:07;;;;;;;71.95;7.80;;;12.80;1.00;;;;;;5023688;28;20190;-86
2023/04/15 12:56:33;;;;;;;67.28;9.23;;;12.60;1.00;;;;;;5024429;28;20243;-83
2023/04/15 13:03:59;;;;;;;66.72;6.30;;;12.50;1.00;;;;;;5042495;28;20472;-85
2023/04/15 13:06:25;;;;;;;68.38;8.00;;;12.50;1.00;;;;;;5045019;28;20203;-85